sensor_id;sensor_type;location;lat;lon;timestamp;P1;durP1;ratioP1;P2;durP2;ratioP2
61673;SDS011;47573;43.832;5.974;2023-06-22T00:02:49;334.15;;;232.50;;
61673;SDS011;47573;43.832;5.974;2023-06-22T00:09:30;344.08;;;242.68;;
61673;SDS011;47573;43.832;5.974;2023-06-22T00:16:12;335.57;;;240.37;;
61673;SDS011;47573;43.832;5.974;2023-06-22T00:22:53;364.60;;;264.80;;
61673;SDS011;47573;43.832;5.974;2023-06-22T00:29:34;425.15;;;309.27;;
61673;SDS011;47573;43.832;5.974;2023-06-22T00:36:16;463.67;;;337.83;;
61673;SDS011;47573;43.832;5.974;2023-06-22T00:42:57;460.45;;;337.27;;
61673;SDS011;47573;43.832;5.974;2023-06-22T00:49:38;447.30;;;325.58;;
61673;SDS011;47573;43.832;5.974;2023-06-22T00:56:20;466.67;;;338.88;;
61673;SDS011;47573;43.832;5.974;2023-06-22T01:09:57;488.87;;;357.60;;
61673;SDS011;47573;43.832;5.974;2023-06-22T01:23:26;457.23;;;329.95;;
61673;SDS011;47573;43.832;5.974;2023-06-22T01:30:14;459.25;;;333.65;;
61673;SDS011;47573;43.832;5.974;2023-06-22T01:36:56;443.48;;;324.35;;
61673;SDS011;47573;43.832;5.974;2023-06-22T01:43:39;458.58;;;331.23;;
61673;SDS011;47573;43.832;5.974;2023-06-22T01:50:22;376.17;;;275.10;;
61673;SDS011;47573;43.832;5.974;2023-06-22T02:03:44;398.23;;;289.70;;
61673;SDS011;47573;43.832;5.974;2023-06-22T02:10:30;387.15;;;282.40;;
61673;SDS011;47573;43.832;5.974;2023-06-22T02:17:11;396.35;;;293.27;;
61673;SDS011;47573;43.832;5.974;2023-06-22T02:23:53;313.17;;;227.07;;
61673;SDS011;47573;43.832;5.974;2023-06-22T02:30:35;378.75;;;282.83;;
61673;SDS011;47573;43.832;5.974;2023-06-22T02:37:15;392.23;;;289.20;;
61673;SDS011;47573;43.832;5.974;2023-06-22T02:43:56;373.45;;;275.45;;
61673;SDS011;47573;43.832;5.974;2023-06-22T02:50:38;386.77;;;287.80;;
61673;SDS011;47573;43.832;5.974;2023-06-22T02:57:18;380.42;;;279.73;;
61673;SDS011;47573;43.832;5.974;2023-06-22T03:03:59;371.40;;;273.98;;
61673;SDS011;47573;43.832;5.974;2023-06-22T03:10:41;371.38;;;273.38;;
61673;SDS011;47573;43.832;5.974;2023-06-22T03:17:21;367.88;;;271.90;;
61673;SDS011;47573;43.832;5.974;2023-06-22T03:24:02;369.10;;;276.33;;
61673;SDS011;47573;43.832;5.974;2023-06-22T03:30:45;361.38;;;265.00;;
61673;SDS011;47573;43.832;5.974;2023-06-22T03:44:06;356.73;;;259.60;;
61673;SDS011;47573;43.832;5.974;2023-06-22T03:50:47;350.13;;;260.63;;
61673;SDS011;47573;43.832;5.974;2023-06-22T03:57:28;346.20;;;257.45;;
61673;SDS011;47573;43.832;5.974;2023-06-22T04:04:09;346.33;;;254.93;;
61673;SDS011;47573;43.832;5.974;2023-06-22T04:10:50;343.70;;;254.60;;
61673;SDS011;47573;43.832;5.974;2023-06-22T04:17:31;337.13;;;246.30;;
61673;SDS011;47573;43.832;5.974;2023-06-22T04:24:12;341.40;;;247.93;;
61673;SDS011;47573;43.832;5.974;2023-06-22T04:30:53;318.00;;;236.23;;
61673;SDS011;47573;43.832;5.974;2023-06-22T04:37:34;125.45;;;83.43;;
61673;SDS011;47573;43.832;5.974;2023-06-22T04:44:15;45.40;;;21.00;;
61673;SDS011;47573;43.832;5.974;2023-06-22T04:50:58;54.55;;;32.42;;
61673;SDS011;47573;43.832;5.974;2023-06-22T04:57:39;38.30;;;21.90;;
61673;SDS011;47573;43.832;5.974;2023-06-22T05:04:19;28.63;;;14.23;;
61673;SDS011;47573;43.832;5.974;2023-06-22T05:11:01;29.63;;;11.93;;
61673;SDS011;47573;43.832;5.974;2023-06-22T05:17:41;20.27;;;11.32;;
61673;SDS011;47573;43.832;5.974;2023-06-22T05:24:22;22.17;;;9.02;;
61673;SDS011;47573;43.832;5.974;2023-06-22T05:31:04;18.07;;;9.93;;
61673;SDS011;47573;43.832;5.974;2023-06-22T05:37:44;22.63;;;9.07;;
61673;SDS011;47573;43.832;5.974;2023-06-22T05:44:25;20.70;;;8.70;;
61673;SDS011;47573;43.832;5.974;2023-06-22T05:51:07;55.10;;;17.27;;
61673;SDS011;47573;43.832;5.974;2023-06-22T05:57:47;33.43;;;9.37;;
61673;SDS011;47573;43.832;5.974;2023-06-22T06:04:27;20.83;;;8.43;;
61673;SDS011;47573;43.832;5.974;2023-06-22T06:11:09;17.97;;;7.93;;
61673;SDS011;47573;43.832;5.974;2023-06-22T06:17:50;23.83;;;8.57;;
61673;SDS011;47573;43.832;5.974;2023-06-22T06:24:32;22.73;;;8.23;;
61673;SDS011;47573;43.832;5.974;2023-06-22T06:31:13;31.87;;;9.00;;
61673;SDS011;47573;43.832;5.974;2023-06-22T06:37:54;17.30;;;7.63;;
61673;SDS011;47573;43.832;5.974;2023-06-22T06:44:34;23.65;;;8.48;;
61673;SDS011;47573;43.832;5.974;2023-06-22T06:51:16;27.00;;;8.50;;
61673;SDS011;47573;43.832;5.974;2023-06-22T06:57:57;251.30;;;78.40;;
61673;SDS011;47573;43.832;5.974;2023-06-22T07:04:37;30.42;;;9.18;;
61673;SDS011;47573;43.832;5.974;2023-06-22T07:11:19;19.43;;;8.83;;
61673;SDS011;47573;43.832;5.974;2023-06-22T07:18:00;100.40;;;28.52;;
61673;SDS011;47573;43.832;5.974;2023-06-22T07:24:40;93.03;;;25.83;;
61673;SDS011;47573;43.832;5.974;2023-06-22T07:31:23;25.23;;;8.53;;
61673;SDS011;47573;43.832;5.974;2023-06-22T07:38:04;22.98;;;8.77;;
61673;SDS011;47573;43.832;5.974;2023-06-22T07:44:44;21.70;;;8.73;;
61673;SDS011;47573;43.832;5.974;2023-06-22T07:51:26;18.48;;;8.75;;
61673;SDS011;47573;43.832;5.974;2023-06-22T07:58:07;24.48;;;9.73;;
61673;SDS011;47573;43.832;5.974;2023-06-22T08:04:48;19.43;;;9.63;;
61673;SDS011;47573;43.832;5.974;2023-06-22T08:11:29;16.92;;;9.05;;
61673;SDS011;47573;43.832;5.974;2023-06-22T08:18:10;18.97;;;8.53;;
61673;SDS011;47573;43.832;5.974;2023-06-22T08:24:50;18.23;;;9.03;;
61673;SDS011;47573;43.832;5.974;2023-06-22T08:31:32;17.20;;;9.07;;
61673;SDS011;47573;43.832;5.974;2023-06-22T08:38:13;18.43;;;9.50;;
61673;SDS011;47573;43.832;5.974;2023-06-22T08:44:53;16.83;;;9.20;;
61673;SDS011;47573;43.832;5.974;2023-06-22T08:51:35;26.90;;;9.50;;
61673;SDS011;47573;43.832;5.974;2023-06-22T08:58:16;18.73;;;9.35;;
61673;SDS011;47573;43.832;5.974;2023-06-22T09:04:56;18.07;;;9.07;;
61673;SDS011;47573;43.832;5.974;2023-06-22T09:11:38;19.02;;;8.52;;
61673;SDS011;47573;43.832;5.974;2023-06-22T09:18:19;20.58;;;9.63;;
61673;SDS011;47573;43.832;5.974;2023-06-22T09:24:59;17.45;;;8.77;;
61673;SDS011;47573;43.832;5.974;2023-06-22T09:31:41;17.15;;;9.00;;
61673;SDS011;47573;43.832;5.974;2023-06-22T09:38:21;13.90;;;9.20;;
61673;SDS011;47573;43.832;5.974;2023-06-22T09:45:02;15.23;;;8.30;;
61673;SDS011;47573;43.832;5.974;2023-06-22T09:51:44;14.05;;;8.20;;
61673;SDS011;47573;43.832;5.974;2023-06-22T09:58:25;15.35;;;8.52;;
61673;SDS011;47573;43.832;5.974;2023-06-22T10:05:06;16.63;;;9.10;;
61673;SDS011;47573;43.832;5.974;2023-06-22T10:11:47;397.60;;;132.75;;
61673;SDS011;47573;43.832;5.974;2023-06-22T10:18:28;134.98;;;37.65;;
61673;SDS011;47573;43.832;5.974;2023-06-22T10:25:09;37.27;;;13.63;;
61673;SDS011;47573;43.832;5.974;2023-06-22T10:31:51;116.23;;;38.00;;
61673;SDS011;47573;43.832;5.974;2023-06-22T10:38:32;20.30;;;8.82;;
61673;SDS011;47573;43.832;5.974;2023-06-22T10:45:12;18.33;;;9.15;;
61673;SDS011;47573;43.832;5.974;2023-06-22T10:51:54;24.80;;;9.37;;
61673;SDS011;47573;43.832;5.974;2023-06-22T10:58:35;159.37;;;45.17;;
61673;SDS011;47573;43.832;5.974;2023-06-22T11:05:15;21.00;;;9.85;;
61673;SDS011;47573;43.832;5.974;2023-06-22T11:11:57;14.23;;;8.82;;
61673;SDS011;47573;43.832;5.974;2023-06-22T11:18:38;12.30;;;8.17;;
61673;SDS011;47573;43.832;5.974;2023-06-22T11:25:19;15.80;;;9.10;;
61673;SDS011;47573;43.832;5.974;2023-06-22T11:32:01;14.53;;;8.20;;
61673;SDS011;47573;43.832;5.974;2023-06-22T11:38:42;16.30;;;8.57;;
61673;SDS011;47573;43.832;5.974;2023-06-22T11:45:23;879.75;;;417.40;;
61673;SDS011;47573;43.832;5.974;2023-06-22T11:52:05;14.20;;;8.50;;
61673;SDS011;47573;43.832;5.974;2023-06-22T11:58:46;516.20;;;185.00;;
61673;SDS011;47573;43.832;5.974;2023-06-22T12:05:27;400.98;;;158.65;;
61673;SDS011;47573;43.832;5.974;2023-06-22T12:12:09;16.17;;;9.80;;
61673;SDS011;47573;43.832;5.974;2023-06-22T12:18:50;15.63;;;9.82;;
61673;SDS011;47573;43.832;5.974;2023-06-22T12:25:30;17.50;;;9.80;;
61673;SDS011;47573;43.832;5.974;2023-06-22T12:32:12;545.30;;;264.10;;
61673;SDS011;47573;43.832;5.974;2023-06-22T12:45:33;965.42;;;444.13;;
61673;SDS011;47573;43.832;5.974;2023-06-22T12:52:15;14.47;;;9.47;;
61673;SDS011;47573;43.832;5.974;2023-06-22T12:58:56;819.10;;;314.48;;
61673;SDS011;47573;43.832;5.974;2023-06-22T13:05:36;15.10;;;10.13;;
61673;SDS011;47573;43.832;5.974;2023-06-22T13:12:19;13.10;;;9.00;;
61673;SDS011;47573;43.832;5.974;2023-06-22T13:18:59;22.92;;;9.65;;
61673;SDS011;47573;43.832;5.974;2023-06-22T13:25:40;250.43;;;69.23;;
61673;SDS011;47573;43.832;5.974;2023-06-22T13:32:22;16.80;;;9.83;;
61673;SDS011;47573;43.832;5.974;2023-06-22T13:39:02;571.65;;;189.70;;
61673;SDS011;47573;43.832;5.974;2023-06-22T13:45:43;25.63;;;12.07;;
61673;SDS011;47573;43.832;5.974;2023-06-22T13:52:25;197.40;;;56.33;;
61673;SDS011;47573;43.832;5.974;2023-06-22T13:59:05;63.97;;;20.50;;
61673;SDS011;47573;43.832;5.974;2023-06-22T14:05:46;637.72;;;233.70;;
61673;SDS011;47573;43.832;5.974;2023-06-22T14:12:28;18.63;;;10.30;;
61673;SDS011;47573;43.832;5.974;2023-06-22T14:19:08;15.48;;;9.57;;
61673;SDS011;47573;43.832;5.974;2023-06-22T14:25:49;102.20;;;37.93;;
61673;SDS011;47573;43.832;5.974;2023-06-22T14:32:30;49.53;;;33.60;;
61673;SDS011;47573;43.832;5.974;2023-06-22T14:39:11;525.00;;;215.75;;
61673;SDS011;47573;43.832;5.974;2023-06-22T14:45:51;70.50;;;45.80;;
61673;SDS011;47573;43.832;5.974;2023-06-22T14:52:33;66.03;;;43.10;;
61673;SDS011;47573;43.832;5.974;2023-06-22T14:59:14;64.55;;;42.03;;
61673;SDS011;47573;43.832;5.974;2023-06-22T15:05:54;66.68;;;41.88;;
61673;SDS011;47573;43.832;5.974;2023-06-22T15:12:36;194.70;;;98.13;;
61673;SDS011;47573;43.832;5.974;2023-06-22T15:19:17;118.40;;;76.53;;
61673;SDS011;47573;43.832;5.974;2023-06-22T15:25:58;119.60;;;78.10;;
61673;SDS011;47573;43.832;5.974;2023-06-22T15:32:40;123.37;;;77.70;;
61673;SDS011;47573;43.832;5.974;2023-06-22T15:39:23;148.57;;;94.97;;
61673;SDS011;47573;43.832;5.974;2023-06-22T15:46:03;180.77;;;112.83;;
61673;SDS011;47573;43.832;5.974;2023-06-22T15:52:45;215.47;;;137.90;;
61673;SDS011;47573;43.832;5.974;2023-06-22T15:59:26;270.40;;;173.60;;
61673;SDS011;47573;43.832;5.974;2023-06-22T16:06:06;276.70;;;179.90;;
61673;SDS011;47573;43.832;5.974;2023-06-22T16:12:48;328.23;;;221.53;;
61673;SDS011;47573;43.832;5.974;2023-06-22T16:19:29;357.98;;;246.20;;
61673;SDS011;47573;43.832;5.974;2023-06-22T16:26:10;403.80;;;273.80;;
61673;SDS011;47573;43.832;5.974;2023-06-22T16:32:52;393.77;;;269.37;;
61673;SDS011;47573;43.832;5.974;2023-06-22T16:39:34;412.92;;;280.10;;
61673;SDS011;47573;43.832;5.974;2023-06-22T16:46:14;382.40;;;258.83;;
61673;SDS011;47573;43.832;5.974;2023-06-22T16:52:56;323.53;;;215.97;;
61673;SDS011;47573;43.832;5.974;2023-06-22T16:59:36;218.63;;;139.15;;
61673;SDS011;47573;43.832;5.974;2023-06-22T17:06:17;162.37;;;100.17;;
61673;SDS011;47573;43.832;5.974;2023-06-22T17:13:00;138.60;;;82.73;;
61673;SDS011;47573;43.832;5.974;2023-06-22T17:19:42;104.40;;;60.85;;
61673;SDS011;47573;43.832;5.974;2023-06-22T17:26:23;108.13;;;65.10;;
61673;SDS011;47573;43.832;5.974;2023-06-22T17:33:05;123.30;;;70.23;;
61673;SDS011;47573;43.832;5.974;2023-06-22T17:39:51;93.43;;;50.83;;
61673;SDS011;47573;43.832;5.974;2023-06-22T17:46:35;68.93;;;39.90;;
61673;SDS011;47573;43.832;5.974;2023-06-22T17:53:17;72.05;;;41.38;;
61673;SDS011;47573;43.832;5.974;2023-06-22T17:59:58;58.08;;;29.83;;
61673;SDS011;47573;43.832;5.974;2023-06-22T18:06:39;40.33;;;21.48;;
61673;SDS011;47573;43.832;5.974;2023-06-22T18:13:22;37.55;;;18.75;;
61673;SDS011;47573;43.832;5.974;2023-06-22T18:20:04;32.72;;;16.58;;
61673;SDS011;47573;43.832;5.974;2023-06-22T18:26:47;75.95;;;31.02;;
61673;SDS011;47573;43.832;5.974;2023-06-22T18:33:30;42.38;;;20.60;;
61673;SDS011;47573;43.832;5.974;2023-06-22T18:40:11;77.13;;;25.08;;
61673;SDS011;47573;43.832;5.974;2023-06-22T18:46:56;529.60;;;215.18;;
61673;SDS011;47573;43.832;5.974;2023-06-22T18:53:39;43.55;;;21.67;;
61673;SDS011;47573;43.832;5.974;2023-06-22T19:00:23;43.05;;;21.75;;
61673;SDS011;47573;43.832;5.974;2023-06-22T19:07:10;51.92;;;29.10;;
61673;SDS011;47573;43.832;5.974;2023-06-22T19:13:53;121.95;;;41.90;;
61673;SDS011;47573;43.832;5.974;2023-06-22T19:20:33;40.72;;;17.63;;
61673;SDS011;47573;43.832;5.974;2023-06-22T19:27:13;49.57;;;19.73;;
61673;SDS011;47573;43.832;5.974;2023-06-22T19:34:00;56.38;;;28.77;;
61673;SDS011;47573;43.832;5.974;2023-06-22T19:40:42;27.10;;;13.80;;
61673;SDS011;47573;43.832;5.974;2023-06-22T19:47:22;32.72;;;15.60;;
61673;SDS011;47573;43.832;5.974;2023-06-22T19:54:05;32.85;;;14.98;;
61673;SDS011;47573;43.832;5.974;2023-06-22T20:00:47;28.77;;;14.38;;
61673;SDS011;47573;43.832;5.974;2023-06-22T20:07:33;31.95;;;14.43;;
61673;SDS011;47573;43.832;5.974;2023-06-22T20:14:16;90.15;;;55.08;;
61673;SDS011;47573;43.832;5.974;2023-06-22T20:20:59;494.77;;;156.40;;
61673;SDS011;47573;43.832;5.974;2023-06-22T20:27:41;115.93;;;65.93;;
61673;SDS011;47573;43.832;5.974;2023-06-22T20:34:23;54.22;;;31.67;;
61673;SDS011;47573;43.832;5.974;2023-06-22T20:41:04;74.17;;;36.00;;
61673;SDS011;47573;43.832;5.974;2023-06-22T20:47:44;98.30;;;53.30;;
61673;SDS011;47573;43.832;5.974;2023-06-22T20:54:26;108.00;;;63.63;;
61673;SDS011;47573;43.832;5.974;2023-06-22T21:01:07;82.80;;;47.43;;
61673;SDS011;47573;43.832;5.974;2023-06-22T21:07:48;77.72;;;41.25;;
61673;SDS011;47573;43.832;5.974;2023-06-22T21:14:30;56.90;;;31.80;;
61673;SDS011;47573;43.832;5.974;2023-06-22T21:21:11;41.53;;;21.47;;
61673;SDS011;47573;43.832;5.974;2023-06-22T21:27:51;48.53;;;25.70;;
61673;SDS011;47573;43.832;5.974;2023-06-22T21:34:33;52.38;;;31.45;;
61673;SDS011;47573;43.832;5.974;2023-06-22T21:41:14;55.60;;;32.47;;
61673;SDS011;47573;43.832;5.974;2023-06-22T21:47:54;47.78;;;24.50;;
61673;SDS011;47573;43.832;5.974;2023-06-22T21:54:36;47.20;;;24.50;;
61673;SDS011;47573;43.832;5.974;2023-06-22T22:01:17;76.90;;;39.20;;
61673;SDS011;47573;43.832;5.974;2023-06-22T22:07:57;138.93;;;79.95;;
61673;SDS011;47573;43.832;5.974;2023-06-22T22:14:39;114.53;;;63.87;;
61673;SDS011;47573;43.832;5.974;2023-06-22T22:21:20;118.10;;;62.93;;
61673;SDS011;47573;43.832;5.974;2023-06-22T22:28:00;136.10;;;71.80;;
61673;SDS011;47573;43.832;5.974;2023-06-22T22:34:42;132.13;;;70.10;;
61673;SDS011;47573;43.832;5.974;2023-06-22T22:41:23;133.17;;;69.73;;
61673;SDS011;47573;43.832;5.974;2023-06-22T22:48:03;132.20;;;67.57;;
61673;SDS011;47573;43.832;5.974;2023-06-22T22:54:45;143.43;;;72.30;;
61673;SDS011;47573;43.832;5.974;2023-06-22T23:01:26;170.17;;;91.27;;
61673;SDS011;47573;43.832;5.974;2023-06-22T23:08:07;222.48;;;125.15;;
61673;SDS011;47573;43.832;5.974;2023-06-22T23:14:48;235.93;;;132.40;;
61673;SDS011;47573;43.832;5.974;2023-06-22T23:21:29;272.13;;;151.30;;
61673;SDS011;47573;43.832;5.974;2023-06-22T23:28:09;324.47;;;203.27;;
61673;SDS011;47573;43.832;5.974;2023-06-22T23:34:51;334.63;;;207.47;;
61673;SDS011;47573;43.832;5.974;2023-06-22T23:41:33;364.17;;;234.90;;
61673;SDS011;47573;43.832;5.974;2023-06-22T23:48:13;410.90;;;266.53;;
61673;SDS011;47573;43.832;5.974;2023-06-22T23:54:55;394.03;;;258.80;;
